Terminal Aerodrome Forecast
Issued by NWS Milwaukee/Sullivan, WI

Home | Current Version | Previous Version | Text Only | Print | Product List | Glossary On
Versions: 1 2 3 4 5 6 7 8 9 10 11 12 13 14 15 16 17 18 19 20 21 22 23 24 25 26 27 28 29 30 31 32 33 34 35 36 37 38 39 40 41 42 43 44 45 46 47 48 49 50
000
FTUS43 KMKX 201148
TAFMKE
TAF
KMKE 201148Z 2012/2118 15006KT 1/2SM FG BKN003
     FM201400 15010KT P6SM SCT030
     FM201700 16014G20KT P6SM SCT150
     FM210000 17009KT P6SM VCTS SCT080CB
     FM210600 22004KT P6SM BKN050
     FM211300 06004KT P6SM BKN070
     FM211600 15006KT P6SM SCT150=

USA.gov is the U.S. government's official web portal to all federal, state and local government web resources and services.